Time;durP1;ratioP1;P1;durP2;ratioP2;P2;SDS_P1;SDS_P2;PMS_P1;PMS_P2;Temp;Humidity;BMP_temperature;BMP_pressure;BME280_temperature;BME280_humidity;BME280_pressure;Samples;Min_cycle;Max_cycle;Signal;HPM_P1;HPM_P2
2021/08/14 00:00:18;;;;;;;4.22;1.50;;;22.50;72.10;;;;;;5090695;28;20051;-45
2021/08/14 00:02:44;;;;;;;2.13;1.45;;;22.60;72.20;;;;;;5091997;28;20047;-49
2021/08/14 00:05:10;;;;;;;1.70;1.10;;;22.60;72.20;;;;;;5091451;28;20407;-48
2021/08/14 00:07:35;;;;;;;2.08;1.17;;;22.60;72.20;;;;;;5091598;28;20048;-49
2021/08/14 00:10:02;;;;;;;1.50;1.30;;;22.50;72.10;;;;;;5090672;28;20090;-50
2021/08/14 00:12:28;;;;;;;3.63;1.20;;;22.50;72.10;;;;;;5091696;28;20070;-48
2021/08/14 00:14:53;;;;;;;2.20;1.60;;;22.50;72.10;;;;;;5091930;28;20048;-48
2021/08/14 00:17:19;;;;;;;2.38;1.27;;;22.60;72.20;;;;;;5092250;28;20044;-48
2021/08/14 00:19:45;;;;;;;2.10;1.30;;;22.50;72.10;;;;;;5091863;28;20411;-48
2021/08/14 00:22:11;;;;;;;2.05;1.30;;;22.50;72.10;;;;;;5091743;28;20468;-45
2021/08/14 00:24:37;;;;;;;2.25;1.40;;;22.50;72.10;;;;;;5091236;28;20044;-45
2021/08/14 00:27:03;;;;;;;1.70;1.20;;;22.50;72.10;;;;;;5092246;28;20052;-48
2021/08/14 00:29:28;;;;;;;2.00;1.10;;;22.50;72.10;;;;;;5092051;28;20048;-48
2021/08/14 00:31:54;;;;;;;1.50;1.05;;;22.50;72.10;;;;;;5091633;28;20036;-46
2021/08/14 00:34:20;;;;;;;1.73;1.15;;;22.50;72.10;;;;;;5091493;28;20048;-45
2021/08/14 00:36:45;;;;;;;2.72;1.35;;;22.50;72.20;;;;;;5092000;28;20052;-50
2021/08/14 00:39:11;;;;;;;1.55;1.30;;;22.50;72.20;;;;;;5091366;28;20083;-45
2021/08/14 00:41:37;;;;;;;2.42;1.40;;;22.50;72.20;;;;;;5091334;28;20048;-46
2021/08/14 00:44:03;;;;;;;3.00;1.35;;;22.50;72.20;;;;;;5091088;28;20495;-45
2021/08/14 00:46:33;;;;;;;2.72;1.40;;;22.50;72.20;;;;;;5091744;28;20044;-49
2021/08/14 00:49:00;;;;;;;3.03;1.35;;;22.50;72.20;;;;;;5091365;28;20044;-45
2021/08/14 00:51:26;;;;;;;2.83;1.30;;;22.50;72.20;;;;;;5091802;28;20127;-49
2021/08/14 00:53:52;;;;;;;2.80;1.23;;;22.50;72.20;;;;;;5091432;28;20044;-48
2021/08/14 00:56:24;;;;;;;1.80;1.25;;;22.50;72.20;;;;;;5091099;28;20096;-51
2021/08/14 00:58:54;;;;;;;2.30;1.33;;;22.50;72.20;;;;;;5091438;28;20074;-49
2021/08/14 01:01:26;;;;;;;1.88;1.15;;;22.50;72.20;;;;;;5091340;28;20480;-45
2021/08/14 01:03:53;;;;;;;3.67;1.35;;;22.50;72.20;;;;;;5091728;28;20047;-48
2021/08/14 01:06:21;;;;;;;1.85;1.33;;;22.50;72.20;;;;;;5091986;28;20044;-48
2021/08/14 01:08:47;;;;;;;2.17;1.50;;;22.50;72.30;;;;;;5091480;28;20052;-50
2021/08/14 01:11:14;;;;;;;2.53;1.40;;;22.50;72.20;;;;;;5090892;28;20051;-50
2021/08/14 01:13:41;;;;;;;1.52;1.10;;;22.50;72.30;;;;;;5090619;28;20141;-49
2021/08/14 01:16:07;;;;;;;1.75;1.40;;;22.50;72.20;;;;;;5091157;28;20047;-51
2021/08/14 01:18:33;;;;;;;2.05;1.40;;;22.50;72.30;;;;;;5090243;28;20492;-50
2021/08/14 01:20:59;;;;;;;2.85;1.60;;;22.50;72.30;;;;;;5093908;28;20510;-50
2021/08/14 01:23:26;;;;;;;3.92;1.48;;;22.40;72.30;;;;;;5095015;28;20044;-47
2021/08/14 01:26:06;;;;;;;3.92;1.60;;;22.40;72.30;;;;;;5094841;28;20051;-47
2021/08/14 01:28:34;;;;;;;1.70;1.23;;;22.50;72.30;;;;;;5094542;28;20048;-49
2021/08/14 01:31:11;;;;;;;1.30;0.98;;;22.40;72.30;;;;;;5094896;28;20040;-51
2021/08/14 01:33:39;;;;;;;1.30;1.15;;;22.50;72.30;;;;;;5093518;28;20409;-48
2021/08/14 01:36:06;;;;;;;1.70;1.20;;;22.40;72.30;;;;;;5094565;28;20044;-49
2021/08/14 01:38:33;;;;;;;1.30;1.20;;;22.40;72.30;;;;;;5094479;28;20450;-45
2021/08/14 01:40:58;;;;;;;1.33;1.20;;;22.40;72.30;;;;;;5094529;28;20046;-48
2021/08/14 01:43:24;;;;;;;1.80;1.30;;;22.40;72.30;;;;;;5092309;28;20044;-46
2021/08/14 01:45:50;;;;;;;1.90;1.27;;;22.40;72.30;;;;;;5093952;28;20044;-47
2021/08/14 01:48:16;;;;;;;2.65;1.38;;;22.40;72.30;;;;;;5094544;28;20056;-48
2021/08/14 01:50:42;;;;;;;2.72;1.63;;;22.40;72.30;;;;;;5094374;28;20052;-43
2021/08/14 01:53:08;;;;;;;2.25;1.60;;;22.40;72.30;;;;;;5094016;28;20044;-50
2021/08/14 01:55:35;;;;;;;2.85;1.30;;;22.50;72.40;;;;;;5093880;28;20514;-47
2021/08/14 01:58:02;;;;;;;2.72;1.40;;;22.40;72.40;;;;;;5094332;28;20048;-49
2021/08/14 02:00:28;;;;;;;1.77;1.38;;;22.40;72.40;;;;;;5093320;28;20368;-49
2021/08/14 02:02:55;;;;;;;2.53;1.30;;;22.40;72.40;;;;;;5094185;28;20040;-47
2021/08/14 02:05:22;;;;;;;2.45;1.30;;;22.40;72.40;;;;;;5093918;28;20127;-47
2021/08/14 02:07:48;;;;;;;2.75;1.33;;;22.40;72.40;;;;;;5094028;28;20048;-51
2021/08/14 02:10:14;;;;;;;1.38;1.13;;;22.40;72.40;;;;;;5093444;28;20044;-48
2021/08/14 02:12:39;;;;;;;1.88;1.45;;;22.40;72.40;;;;;;5093834;28;20051;-48
2021/08/14 02:15:07;;;;;;;1.65;1.05;;;22.40;72.40;;;;;;5093396;28;20094;-47
2021/08/14 02:17:33;;;;;;;2.67;1.60;;;22.40;72.40;;;;;;5094115;28;20048;-50
2021/08/14 02:19:59;;;;;;;2.13;1.50;;;22.40;72.40;;;;;;5094023;28;20403;-45
2021/08/14 02:22:25;;;;;;;3.03;1.50;;;22.40;72.40;;;;;;5093418;28;20559;-48
2021/08/14 02:24:51;;;;;;;2.78;1.33;;;22.40;72.40;;;;;;5093066;28;20044;-49
2021/08/14 02:27:17;;;;;;;2.50;1.40;;;22.40;72.40;;;;;;5093903;28;20132;-51
2021/08/14 02:29:42;;;;;;;1.40;1.30;;;22.40;72.40;;;;;;5093852;28;20055;-47
2021/08/14 02:32:08;;;;;;;2.20;1.70;;;22.40;72.40;;;;;;5092190;28;20064;-46
2021/08/14 02:34:34;;;;;;;2.33;1.40;;;22.40;72.40;;;;;;5093586;28;20918;-49
2021/08/14 02:37:00;;;;;;;1.58;1.38;;;22.40;72.40;;;;;;5093680;28;20054;-50
2021/08/14 02:39:26;;;;;;;1.92;1.20;;;22.40;72.50;;;;;;5093416;28;20561;-49
2021/08/14 02:41:51;;;;;;;1.55;1.17;;;22.40;72.50;;;;;;5093565;28;20075;-43
2021/08/14 02:44:17;;;;;;;1.65;1.40;;;22.40;72.50;;;;;;5093221;28;20047;-49
2021/08/14 02:46:43;;;;;;;2.10;1.23;;;22.40;72.50;;;;;;5093035;28;20043;-51
2021/08/14 02:49:08;;;;;;;2.28;1.17;;;22.40;72.50;;;;;;5093591;28;20079;-48
2021/08/14 02:51:34;;;;;;;2.20;1.30;;;22.40;72.50;;;;;;5093837;28;20048;-51
2021/08/14 02:54:00;;;;;;;1.77;0.95;;;22.30;72.40;;;;;;5093402;28;20048;-51
2021/08/14 02:56:25;;;;;;;1.35;1.25;;;22.30;72.40;;;;;;5092813;28;20576;-43
2021/08/14 02:58:51;;;;;;;1.98;1.38;;;22.30;72.40;;;;;;5093447;28;20143;-50
2021/08/14 03:01:17;;;;;;;2.70;1.75;;;22.30;72.40;;;;;;5093383;28;20164;-48
2021/08/14 03:03:43;;;;;;;2.08;1.48;;;22.30;72.50;;;;;;5092667;28;20063;-47
2021/08/14 03:06:25;;;;;;;1.60;1.35;;;22.30;72.50;;;;;;5091291;28;20086;-44
2021/08/14 03:08:51;;;;;;;3.15;1.45;;;22.30;72.40;;;;;;5093129;28;20063;-48
2021/08/14 03:11:17;;;;;;;2.38;1.40;;;22.30;72.50;;;;;;5093173;28;20411;-45
2021/08/14 03:13:43;;;;;;;2.38;1.30;;;22.30;72.50;;;;;;5092895;28;20063;-51
2021/08/14 03:16:09;;;;;;;1.50;1.23;;;22.30;72.40;;;;;;5092211;28;20062;-49
2021/08/14 03:18:35;;;;;;;2.05;1.40;;;22.30;72.50;;;;;;5092425;28;20492;-49
2021/08/14 03:21:00;;;;;;;2.00;1.30;;;22.30;72.50;;;;;;5092807;28;20135;-49
2021/08/14 03:23:26;;;;;;;1.40;1.30;;;22.30;72.50;;;;;;5092857;28;20043;-50
2021/08/14 03:25:52;;;;;;;1.13;1.02;;;22.30;72.50;;;;;;5092280;28;20132;-46
2021/08/14 03:28:18;;;;;;;2.67;1.60;;;22.30;72.50;;;;;;5093224;28;20127;-49
2021/08/14 03:30:44;;;;;;;1.88;1.15;;;22.30;72.50;;;;;;5092840;28;20044;-47
2021/08/14 03:33:09;;;;;;;1.85;1.17;;;22.30;72.50;;;;;;5092324;28;20403;-50
2021/08/14 03:35:35;;;;;;;2.28;1.25;;;22.30;72.50;;;;;;5091589;28;20040;-44
2021/08/14 03:38:01;;;;;;;2.40;1.45;;;22.30;72.50;;;;;;5092061;28;20409;-48
2021/08/14 03:40:27;;;;;;;1.90;1.40;;;22.20;72.60;;;;;;5092267;28;20051;-45
2021/08/14 03:42:53;;;;;;;4.25;1.60;;;22.30;72.50;;;;;;5092397;28;20485;-51
2021/08/14 03:45:19;;;;;;;1.52;1.30;;;22.30;72.50;;;;;;5091958;28;20081;-47
2021/08/14 03:47:45;;;;;;;3.20;1.58;;;22.30;72.50;;;;;;5092041;28;20076;-51
2021/08/14 03:50:11;;;;;;;2.13;1.38;;;22.30;72.50;;;;;;5091670;28;20075;-49
2021/08/14 03:52:37;;;;;;;1.80;1.10;;;22.30;72.50;;;;;;5092045;28;20087;-50
2021/08/14 03:55:06;;;;;;;1.70;1.40;;;22.30;72.50;;;;;;5091675;28;20063;-50
2021/08/14 03:57:32;;;;;;;1.88;1.40;;;22.30;72.50;;;;;;5091625;28;20072;-51
2021/08/14 03:59:58;;;;;;;2.45;1.33;;;22.30;72.50;;;;;;5091857;28;20393;-52
2021/08/14 04:02:24;;;;;;;2.65;1.40;;;22.30;72.50;;;;;;5091789;28;20083;-50
2021/08/14 04:04:49;;;;;;;2.25;1.65;;;22.30;72.50;;;;;;5091544;28;20074;-50
2021/08/14 04:07:15;;;;;;;1.83;1.35;;;22.30;72.60;;;;;;5091257;28;20080;-51
2021/08/14 04:09:41;;;;;;;2.65;1.40;;;22.30;72.60;;;;;;5091269;28;20507;-51
2021/08/14 04:12:07;;;;;;;1.85;1.40;;;22.30;72.60;;;;;;5090924;28;20055;-47
2021/08/14 04:14:32;;;;;;;2.03;1.30;;;22.20;72.50;;;;;;5091109;28;20245;-48
2021/08/14 04:16:58;;;;;;;2.83;1.38;;;22.30;72.60;;;;;;5090871;28;20135;-46
2021/08/14 04:19:24;;;;;;;2.10;1.20;;;22.20;72.50;;;;;;5090057;28;20127;-48
2021/08/14 04:21:50;;;;;;;1.83;1.30;;;22.20;72.50;;;;;;5090793;28;20480;-46
2021/08/14 04:24:16;;;;;;;1.50;1.27;;;22.20;72.50;;;;;;5091646;28;20036;-42
2021/08/14 04:26:42;;;;;;;1.73;1.30;;;22.30;72.60;;;;;;5091326;28;20127;-41
2021/08/14 04:29:08;;;;;;;2.95;1.45;;;22.20;73.20;;;;;;5091673;28;20130;-42
2021/08/14 04:31:33;;;;;;;1.73;1.10;;;22.20;72.50;;;;;;5091632;28;20395;-43
2021/08/14 04:33:59;;;;;;;2.38;1.40;;;22.20;72.50;;;;;;5091476;28;20058;-42
2021/08/14 04:36:25;;;;;;;1.70;1.40;;;22.20;72.50;;;;;;5091233;28;20396;-45
2021/08/14 04:38:51;;;;;;;2.50;1.40;;;22.20;72.50;;;;;;5091249;28;20067;-43
2021/08/14 04:41:16;;;;;;;1.95;1.40;;;22.20;72.50;;;;;;5091273;28;20508;-41
2021/08/14 04:43:42;;;;;;;2.28;1.38;;;22.20;72.50;;;;;;5091541;28;20072;-45
2021/08/14 04:46:10;;;;;;;2.55;1.33;;;22.20;72.50;;;;;;5091327;28;20108;-41
2021/08/14 04:48:37;;;;;;;1.58;1.40;;;22.30;72.60;;;;;;5091330;28;20051;-45
2021/08/14 04:51:03;;;;;;;1.98;1.27;;;22.20;72.50;;;;;;5091419;28;20067;-40
2021/08/14 04:53:29;;;;;;;4.72;1.52;;;22.20;72.50;;;;;;5091061;28;20040;-43
2021/08/14 04:55:55;;;;;;;1.98;1.40;;;22.30;73.20;;;;;;5094432;28;20503;-42
2021/08/14 04:58:20;;;;;;;2.20;1.30;;;22.20;72.50;;;;;;5095346;28;20409;-42
2021/08/14 05:00:46;;;;;;;2.90;1.48;;;22.20;72.50;;;;;;5095224;28;20036;-40
2021/08/14 05:03:12;;;;;;;2.85;1.42;;;22.20;72.50;;;;;;5095122;28;20139;-50
2021/08/14 05:05:37;;;;;;;2.70;1.50;;;22.20;72.50;;;;;;5095220;28;20074;-45
2021/08/14 05:08:03;;;;;;;1.67;1.30;;;22.20;72.50;;;;;;5094706;28;20040;-46
2021/08/14 05:10:29;;;;;;;2.05;1.40;;;22.20;72.50;;;;;;5095345;28;20054;-46
2021/08/14 05:12:56;;;;;;;3.10;1.42;;;22.20;72.50;;;;;;5095412;28;20043;-47
2021/08/14 05:15:21;;;;;;;2.35;1.20;;;22.30;72.60;;;;;;5095142;28;20118;-42
2021/08/14 05:17:47;;;;;;;1.95;1.45;;;22.20;72.50;;;;;;5095070;28;20048;-45
2021/08/14 05:20:13;;;;;;;2.97;1.20;;;22.20;72.50;;;;;;5095113;28;20476;-44
2021/08/14 05:22:39;;;;;;;4.03;1.50;;;22.20;72.50;;;;;;5094435;28;20488;-42
2021/08/14 05:25:05;;;;;;;1.95;1.25;;;22.20;72.50;;;;;;5094852;28;20121;-44
2021/08/14 05:27:31;;;;;;;2.42;1.50;;;22.30;72.60;;;;;;5094500;28;20047;-41
2021/08/14 05:29:57;;;;;;;2.72;1.35;;;22.20;72.50;;;;;;5095102;28;20510;-43
2021/08/14 05:32:23;;;;;;;2.03;1.65;;;22.20;72.50;;;;;;5095324;28;20408;-42
2021/08/14 05:34:49;;;;;;;2.20;1.33;;;22.20;73.20;;;;;;5095313;28;20385;-42
2021/08/14 05:37:15;;;;;;;2.78;1.52;;;22.20;72.50;;;;;;5093608;28;20093;-42
2021/08/14 05:39:41;;;;;;;2.15;1.00;;;22.20;72.50;;;;;;5094511;28;20064;-42
2021/08/14 05:42:07;;;;;;;2.40;1.48;;;22.20;72.60;;;;;;5094821;28;20098;-49
2021/08/14 05:44:39;;;;;;;2.92;1.50;;;22.20;72.60;;;;;;5094619;28;20055;-41
2021/08/14 05:47:05;;;;;;;1.45;1.08;;;22.20;72.60;;;;;;5094040;28;20044;-45
2021/08/14 05:49:31;;;;;;;2.10;1.40;;;22.20;72.60;;;;;;5094958;28;20112;-47
2021/08/14 05:51:59;;;;;;;2.60;1.70;;;22.20;72.60;;;;;;5094616;28;20491;-46
2021/08/14 05:54:25;;;;;;;2.00;1.40;;;22.20;72.50;;;;;;5094416;28;20043;-42
2021/08/14 05:56:51;;;;;;;1.80;1.10;;;22.20;72.60;;;;;;5093467;28;20043;-47
2021/08/14 05:59:16;;;;;;;2.42;1.30;;;22.20;72.50;;;;;;5094034;28;20044;-40
2021/08/14 06:01:43;;;;;;;2.13;1.15;;;22.20;72.50;;;;;;5094403;28;20040;-47
2021/08/14 06:04:08;;;;;;;2.67;1.40;;;22.20;72.60;;;;;;5094086;28;20048;-45
2021/08/14 06:06:43;;;;;;;2.58;1.60;;;22.20;72.50;;;;;;5094037;28;20492;-50
2021/08/14 06:09:10;;;;;;;2.85;1.52;;;22.20;72.50;;;;;;5093639;28;20446;-42
2021/08/14 06:11:36;;;;;;;2.03;1.33;;;22.20;72.80;;;;;;5093462;28;20059;-42
2021/08/14 06:14:02;;;;;;;1.90;1.38;;;22.10;72.50;;;;;;5094135;28;20109;-45
2021/08/14 06:16:28;;;;;;;2.15;1.30;;;22.20;72.50;;;;;;5094014;28;20079;-40
2021/08/14 06:18:54;;;;;;;1.92;1.52;;;22.20;72.60;;;;;;5093778;28;20083;-39
2021/08/14 06:21:19;;;;;;;3.00;1.58;;;22.20;72.60;;;;;;5093715;28;20066;-49
2021/08/14 06:23:45;;;;;;;2.25;1.60;;;22.20;72.60;;;;;;5093752;28;20449;-44
2021/08/14 06:26:11;;;;;;;2.65;0.98;;;22.20;72.50;;;;;;5093586;28;20054;-46
2021/08/14 06:28:38;;;;;;;3.50;1.58;;;22.20;72.50;;;;;;5092533;28;20159;-43
2021/08/14 06:31:04;;;;;;;2.50;1.33;;;22.20;72.60;;;;;;5093611;28;20052;-50
2021/08/14 06:33:39;;;;;;;1.85;1.25;;;22.20;72.60;;;;;;5093487;28;20036;-39
2021/08/14 06:36:07;;;;;;;2.05;1.30;;;22.20;72.50;;;;;;5093797;28;20040;-43
2021/08/14 06:38:33;;;;;;;2.35;1.65;;;22.20;72.50;;;;;;5092752;28;20123;-45
2021/08/14 06:40:59;;;;;;;2.78;1.27;;;22.20;72.60;;;;;;5093461;28;20074;-41
2021/08/14 06:43:24;;;;;;;1.90;1.60;;;22.20;72.60;;;;;;5092449;28;20113;-40
2021/08/14 06:45:50;;;;;;;2.00;1.35;;;22.20;72.50;;;;;;5093195;28;20072;-40
2021/08/14 06:48:16;;;;;;;2.50;1.60;;;22.20;72.50;;;;;;5093031;28;20040;-39
2021/08/14 06:50:41;;;;;;;2.10;1.70;;;22.20;72.50;;;;;;5083467;28;20521;-38
2021/08/14 06:53:07;;;;;;;2.58;1.60;;;22.20;72.50;;;;;;5086935;28;20545;-39
2021/08/14 06:55:33;;;;;;;2.92;1.65;;;22.20;72.50;;;;;;5093398;28;20403;-42
2021/08/14 06:57:59;;;;;;;2.72;1.40;;;22.20;72.50;;;;;;5091455;28;20127;-39
2021/08/14 07:00:24;;;;;;;4.63;1.83;;;22.20;72.60;;;;;;5092905;28;20762;-42
2021/08/14 07:02:52;;;;;;;1.88;1.40;;;22.20;72.50;;;;;;5092432;28;20054;-40
2021/08/14 07:05:18;;;;;;;9.63;4.38;;;22.20;72.50;;;;;;5091771;28;20051;-38
2021/08/14 07:07:44;;;;;;;18.58;4.88;;;22.10;72.40;;;;;;5092332;28;20059;-40
2021/08/14 07:10:11;;;;;;;9.77;3.90;;;22.10;72.50;;;;;;5092421;28;20088;-38
2021/08/14 07:12:37;;;;;;;10.75;4.25;;;22.10;72.50;;;;;;5091745;28;20040;-42
2021/08/14 07:15:05;;;;;;;11.48;4.53;;;22.20;72.60;;;;;;5091964;28;20460;-36
2021/08/14 07:17:32;;;;;;;14.48;5.10;;;22.10;72.60;;;;;;5092120;28;20503;-40
2021/08/14 07:19:58;;;;;;;13.00;4.25;;;22.10;73.20;;;;;;5091828;28;20047;-38
2021/08/14 07:22:24;;;;;;;9.45;4.13;;;22.10;72.60;;;;;;5092441;28;20131;-42
2021/08/14 07:24:50;;;;;;;8.68;4.40;;;22.10;72.70;;;;;;5092192;28;20047;-40
2021/08/14 07:27:16;;;;;;;18.58;6.32;;;22.10;72.70;;;;;;5091919;28;20048;-39
2021/08/14 07:29:42;;;;;;;8.70;3.78;;;22.10;72.60;;;;;;5091303;28;20074;-41
2021/08/14 07:32:08;;;;;;;12.68;4.60;;;22.10;72.70;;;;;;5092031;28;20484;-43
2021/08/14 07:34:34;;;;;;;9.35;4.03;;;22.10;72.70;;;;;;5091451;28;20543;-40
2021/08/14 07:37:00;;;;;;;10.48;3.80;;;22.10;72.60;;;;;;5092187;28;20040;-41
2021/08/14 07:39:25;;;;;;;9.55;3.90;;;22.10;72.60;;;;;;5091987;28;20088;-40
2021/08/14 07:41:51;;;;;;;13.43;5.75;;;22.10;72.60;;;;;;5091305;28;20048;-40
2021/08/14 07:44:17;;;;;;;9.30;4.35;;;22.10;72.60;;;;;;5087090;28;20105;-38
2021/08/14 07:46:43;;;;;;;8.48;4.03;;;22.10;72.70;;;;;;5090124;28;20048;-42
2021/08/14 07:49:08;;;;;;;8.52;4.55;;;22.10;72.70;;;;;;5090577;28;20044;-40
2021/08/14 07:51:34;;;;;;;7.55;4.03;;;22.10;72.70;;;;;;5091949;28;20121;-37
2021/08/14 07:53:59;;;;;;;9.90;3.95;;;22.10;72.70;;;;;;5091124;28;20070;-39
2021/08/14 07:56:25;;;;;;;8.90;3.95;;;22.10;72.80;;;;;;5089492;28;20074;-42
2021/08/14 07:58:51;;;;;;;11.88;3.95;;;22.10;72.80;;;;;;5091345;28;20044;-39
2021/08/14 08:01:17;;;;;;;7.70;3.80;;;22.10;72.80;;;;;;5090987;28;20052;-40
2021/08/14 08:03:43;;;;;;;7.97;4.00;;;22.10;72.80;;;;;;5090285;28;20158;-41
2021/08/14 08:06:08;;;;;;;8.05;3.72;;;22.10;72.70;;;;;;5091468;28;20105;-42
2021/08/14 08:08:34;;;;;;;6.28;3.13;;;22.10;72.70;;;;;;5090228;28;20060;-39
2021/08/14 08:11:01;;;;;;;7.38;2.97;;;22.10;73.40;;;;;;5090247;28;20097;-40
2021/08/14 08:13:27;;;;;;;7.90;3.55;;;22.10;72.70;;;;;;5091376;28;20112;-39
2021/08/14 08:15:53;;;;;;;5.72;2.97;;;22.10;72.70;;;;;;5090969;28;20048;-39
2021/08/14 08:18:18;;;;;;;6.28;3.55;;;22.10;72.70;;;;;;5090505;28;20055;-38
2021/08/14 08:20:44;;;;;;;9.23;3.40;;;22.10;72.70;;;;;;5090280;28;20063;-39
2021/08/14 08:23:10;;;;;;;7.10;3.80;;;22.20;72.80;;;;;;5088978;28;20524;-36
2021/08/14 08:25:36;;;;;;;5.07;3.05;;;22.20;72.80;;;;;;5087787;28;20032;-39
2021/08/14 08:28:03;;;;;;;6.22;3.10;;;22.20;72.80;;;;;;5088944;28;20097;-41
2021/08/14 08:30:31;;;;;;;6.85;3.30;;;22.20;72.70;;;;;;5092906;28;20160;-39
2021/08/14 08:32:57;;;;;;;7.65;3.38;;;22.20;72.70;;;;;;5094668;28;20043;-39
2021/08/14 08:35:23;;;;;;;5.85;2.97;;;22.20;72.60;;;;;;5091839;28;20043;-42
2021/08/14 08:37:49;;;;;;;6.22;3.10;;;22.20;72.60;;;;;;5093429;28;20068;-43
2021/08/14 08:40:17;;;;;;;8.00;3.78;;;22.20;72.60;;;;;;5094429;28;20451;-42
2021/08/14 08:42:45;;;;;;;5.90;3.17;;;22.20;72.60;;;;;;5091600;28;20048;-41
2021/08/14 08:45:12;;;;;;;5.50;2.88;;;22.20;72.50;;;;;;5094536;28;20127;-42
2021/08/14 08:47:40;;;;;;;7.35;3.22;;;22.20;72.50;;;;;;5095034;28;20047;-39
2021/08/14 08:50:08;;;;;;;7.50;3.10;;;22.20;72.50;;;;;;5093794;28;20040;-43
2021/08/14 08:52:34;;;;;;;7.25;3.33;;;22.20;72.50;;;;;;5094611;28;20119;-44
2021/08/14 08:55:00;;;;;;;4.40;3.00;;;22.20;72.40;;;;;;5095157;28;20083;-39
2021/08/14 08:57:26;;;;;;;6.93;3.28;;;22.20;72.40;;;;;;5093246;28;20079;-41
2021/08/14 08:59:51;;;;;;;5.13;2.70;;;22.20;72.40;;;;;;5094965;28;20036;-42
2021/08/14 09:02:28;;;;;;;5.47;3.00;;;22.20;72.40;;;;;;5089141;28;20124;-39
2021/08/14 09:05:15;;;;;;;6.80;3.25;;;22.20;72.30;;;;;;5091362;28;20051;-38
2021/08/14 09:07:43;;;;;;;5.00;2.83;;;22.20;72.30;;;;;;5092367;28;20051;-38
2021/08/14 09:10:23;;;;;;;5.60;3.13;;;22.20;72.30;;;;;;5094145;28;20086;-38
2021/08/14 09:12:49;;;;;;;5.63;2.95;;;22.30;72.30;;;;;;5093585;28;20031;-39
2021/08/14 09:15:26;;;;;;;4.85;2.90;;;22.20;72.30;;;;;;5094436;28;20040;-38
2021/08/14 09:17:59;;;;;;;5.80;2.80;;;22.20;72.20;;;;;;5093849;28;20043;-38
2021/08/14 09:20:25;;;;;;;5.32;2.80;;;22.30;72.30;;;;;;5092372;28;20063;-38
2021/08/14 09:23:05;;;;;;;7.50;3.10;;;22.30;72.30;;;;;;5093784;28;20506;-39
2021/08/14 09:25:42;;;;;;;4.43;2.95;;;22.30;72.20;;;;;;5092883;28;20129;-37
2021/08/14 09:28:09;;;;;;;6.88;2.92;;;22.30;72.30;;;;;;5075006;28;20052;-38
2021/08/14 09:30:46;;;;;;;5.55;2.88;;;22.30;72.30;;;;;;5074621;28;20499;-39
2021/08/14 09:33:14;;;;;;;4.22;2.40;;;22.30;72.30;;;;;;5093197;28;20511;-38
2021/08/14 09:35:41;;;;;;;5.70;2.85;;;22.30;72.20;;;;;;5094320;28;20055;-41
2021/08/14 09:38:10;;;;;;;3.22;2.38;;;22.30;72.20;;;;;;5093565;28;20063;-40
2021/08/14 09:40:46;;;;;;;4.47;2.60;;;22.40;72.30;;;;;;5093635;28;20048;-37
2021/08/14 09:43:13;;;;;;;4.32;2.72;;;22.40;72.30;;;;;;5094049;28;20051;-38
2021/08/14 09:45:53;;;;;;;3.33;2.63;;;22.30;72.20;;;;;;5094038;28;20060;-39
2021/08/14 09:48:21;;;;;;;4.60;2.72;;;22.40;72.30;;;;;;5094358;28;20044;-38
2021/08/14 09:50:47;;;;;;;5.13;2.70;;;22.40;72.30;;;;;;5094873;28;20044;-39
2021/08/14 09:53:24;;;;;;;6.03;2.90;;;22.40;72.30;;;;;;5092301;28;20183;-39
2021/08/14 09:56:07;;;;;;;4.50;2.30;;;22.40;72.20;;;;;;5094466;28;20055;-38
2021/08/14 09:58:33;;;;;;;3.45;2.40;;;22.40;72.20;;;;;;5093778;28;20483;-39
2021/08/14 10:01:00;;;;;;;3.65;2.45;;;22.40;72.20;;;;;;5092670;28;20162;-38
2021/08/14 10:03:28;;;;;;;4.50;2.38;;;22.40;72.20;;;;;;5092449;28;20067;-38
2021/08/14 10:05:54;;;;;;;5.22;2.53;;;22.40;72.20;;;;;;5094273;28;20040;-37
2021/08/14 10:08:21;;;;;;;4.10;2.67;;;22.40;72.20;;;;;;5092832;28;20044;-38
2021/08/14 10:10:47;;;;;;;3.70;2.30;;;22.40;72.20;;;;;;5093470;28;20072;-38
2021/08/14 10:13:14;;;;;;;4.55;2.40;;;22.40;72.20;;;;;;5092924;28;20044;-39
2021/08/14 10:15:40;;;;;;;5.00;2.45;;;22.40;72.20;;;;;;5091717;28;20112;-39
2021/08/14 10:18:06;;;;;;;3.75;2.20;;;22.40;72.20;;;;;;5093864;28;20040;-37
2021/08/14 10:20:33;;;;;;;3.70;2.40;;;22.40;72.10;;;;;;5093771;28;20471;-39
2021/08/14 10:23:10;;;;;;;4.63;2.47;;;22.40;72.10;;;;;;5089840;28;20051;-37
2021/08/14 10:25:38;;;;;;;3.28;2.20;;;22.50;72.20;;;;;;5092015;28;20044;-35
2021/08/14 10:28:06;;;;;;;3.63;2.33;;;22.40;72.10;;;;;;5092980;28;20053;-38
2021/08/14 10:30:42;;;;;;;2.88;1.77;;;22.50;72.20;;;;;;5090692;28;20075;-39
2021/08/14 10:33:28;;;;;;;4.00;2.65;;;22.50;72.10;;;;;;5092189;28;20067;-37
2021/08/14 10:35:55;;;;;;;3.75;2.40;;;22.50;72.10;;;;;;5091117;28;20396;-40
2021/08/14 10:38:39;;;;;;;3.30;2.28;;;22.50;72.20;;;;;;5091885;28;20044;-39
2021/08/14 10:41:06;;;;;;;3.75;2.78;;;22.50;72.10;;;;;;5092702;28;20043;-39
2021/08/14 10:43:55;;;;;;;2.45;2.00;;;22.50;72.10;;;;;;5092675;28;20052;-38
2021/08/14 10:46:39;;;;;;;3.42;2.28;;;22.50;72.10;;;;;;5086266;28;20040;-38
2021/08/14 10:49:33;;;;;;;3.30;2.10;;;22.50;72.10;;;;;;5091141;28;20044;-38
2021/08/14 10:52:02;;;;;;;2.42;2.00;;;22.50;72.10;;;;;;5029948;28;20041;-38
2021/08/14 10:54:27;;;;;;;2.83;2.00;;;22.50;72.10;;;;;;5046603;28;20091;-40
2021/08/14 10:57:00;;;;;;;3.60;2.47;;;22.50;72.10;;;;;;5048343;28;20065;-39
2021/08/14 10:59:35;;;;;;;3.97;2.35;;;22.50;72.10;;;;;;5048890;28;20041;-37
2021/08/14 11:02:09;;;;;;;3.13;2.20;;;22.50;72.10;;;;;;5049346;28;20076;-40
2021/08/14 11:04:42;;;;;;;3.50;2.00;;;22.50;72.10;;;;;;5047033;28;20094;-40
2021/08/14 11:07:20;;;;;;;2.92;2.10;;;22.50;72.10;;;;;;5049153;28;20053;-40
2021/08/14 11:10:07;;;;;;;3.15;2.45;;;22.50;72.10;;;;;;5049322;28;20540;-40
2021/08/14 11:12:32;;;;;;;3.47;2.17;;;22.50;72.10;;;;;;5049056;28;20041;-39
2021/08/14 11:15:16;;;;;;;3.45;2.05;;;22.50;72.10;;;;;;5048669;28;20160;-37
2021/08/14 11:17:44;;;;;;;2.20;1.50;;;22.60;72.10;;;;;;5049920;28;20163;-39
2021/08/14 11:20:19;;;;;;;3.60;1.77;;;22.60;72.10;;;;;;5049656;28;20065;-39
2021/08/14 11:22:46;;;;;;;4.13;1.92;;;22.60;72.10;;;;;;5048516;28;20068;-38
2021/08/14 11:25:22;;;;;;;3.42;1.88;;;22.60;72.10;;;;;;5047573;28;20163;-38
2021/08/14 11:28:02;;;;;;;2.13;1.70;;;22.60;72.00;;;;;;5048085;28;20049;-38
2021/08/14 11:30:30;;;;;;;2.50;1.80;;;22.60;72.00;;;;;;5090696;28;20468;-39
2021/08/14 11:32:56;;;;;;;2.17;1.70;;;22.60;72.00;;;;;;5091032;28;20040;-39
2021/08/14 11:35:24;;;;;;;3.22;1.80;;;22.60;72.00;;;;;;5091384;28;20052;-38
2021/08/14 11:37:57;;;;;;;2.75;1.75;;;22.60;71.90;;;;;;5090365;28;20549;-39
2021/08/14 11:40:31;;;;;;;2.20;1.65;;;22.60;71.90;;;;;;5092169;28;20040;-38
2021/08/14 11:42:58;;;;;;;2.05;1.42;;;22.60;71.90;;;;;;5091931;28;20124;-38
2021/08/14 11:45:23;;;;;;;2.20;1.58;;;22.60;71.90;;;;;;5090139;28;20399;-39
2021/08/14 11:48:14;;;;;;;1.70;1.60;;;22.60;71.90;;;;;;5091414;28;20051;-38
2021/08/14 11:50:42;;;;;;;2.70;1.83;;;22.70;71.80;;;;;;5091346;28;20126;-38
2021/08/14 11:53:10;;;;;;;2.28;1.50;;;22.70;71.90;;;;;;5090327;28;20127;-39
2021/08/14 11:55:36;;;;;;;2.90;1.67;;;22.70;71.80;;;;;;5090482;28;20048;-39
2021/08/14 11:58:02;;;;;;;3.30;2.03;;;22.70;71.80;;;;;;5090465;28;20051;-38
2021/08/14 12:00:36;;;;;;;2.63;1.70;;;22.70;71.80;;;;;;5091079;28;20055;-38
2021/08/14 12:03:17;;;;;;;2.65;1.70;;;22.70;71.80;;;;;;5092022;28;20071;-38
2021/08/14 12:05:46;;;;;;;3.50;1.70;;;22.70;71.80;;;;;;5092068;28;20047;-38
2021/08/14 12:08:33;;;;;;;2.58;1.50;;;22.70;71.70;;;;;;5091702;28;20089;-39
2021/08/14 12:11:01;;;;;;;3.47;1.67;;;22.80;71.70;;;;;;5091741;28;20075;-38
2021/08/14 12:13:26;;;;;;;3.30;2.28;;;22.80;71.80;;;;;;5091544;28;20040;-39
2021/08/14 12:15:52;;;;;;;2.63;1.60;;;22.80;71.70;;;;;;5090824;28;20105;-39
2021/08/14 12:18:39;;;;;;;1.98;1.40;;;22.80;71.70;;;;;;5091409;28;20101;-38
2021/08/14 12:21:06;;;;;;;2.05;1.58;;;22.80;71.60;;;;;;5091497;28;20045;-39
2021/08/14 12:23:34;;;;;;;2.17;1.60;;;22.80;71.60;;;;;;5092187;28;20139;-38
2021/08/14 12:26:00;;;;;;;3.33;1.73;;;22.80;71.60;;;;;;5091622;28;20529;-38
2021/08/14 12:28:52;;;;;;;2.67;1.70;;;22.80;71.50;;;;;;5090749;28;20071;-40
2021/08/14 12:31:20;;;;;;;3.00;1.60;;;22.80;71.50;;;;;;5090745;28;20052;-39
2021/08/14 12:33:46;;;;;;;3.28;2.10;;;22.90;72.20;;;;;;5091951;28;20044;-39
2021/08/14 12:36:12;;;;;;;2.55;1.67;;;22.80;71.40;;;;;;5090675;28;20048;-39
2021/08/14 12:38:48;;;;;;;2.63;1.60;;;22.90;71.40;;;;;;5091498;28;20064;-37
2021/08/14 12:41:16;;;;;;;2.75;1.92;;;22.90;71.40;;;;;;5092397;28;20132;-37
2021/08/14 12:43:52;;;;;;;2.03;1.48;;;22.90;71.40;;;;;;5091242;28;20051;-38
2021/08/14 12:46:23;;;;;;;2.55;1.73;;;22.90;71.40;;;;;;5090997;28;20052;-38
2021/08/14 12:49:22;;;;;;;2.42;1.40;;;22.90;71.40;;;;;;5090394;28;20055;-38